Time;durP1;ratioP1;P1;durP2;ratioP2;P2;SDS_P1;SDS_P2;PMS_P1;PMS_P2;Temp;Humidity;BMP_temperature;BMP_pressure;BME280_temperature;BME280_humidity;BME280_pressure;Samples;Min_cycle;Max_cycle;Signal;HPM_P1;HPM_P2
2021/12/12 00:01:38;;;;;;;20.10;17.47;;;;;;;6.83;61.04;98630.34;8313487;28;20233;-71
2021/12/12 00:05:45;;;;;;;22.13;19.03;;;;;;;6.99;60.13;98625.72;8315081;28;20233;-72
2021/12/12 00:09:52;;;;;;;21.30;18.40;;;;;;;7.14;59.92;98632.31;8314565;28;20244;-72
2021/12/12 00:14:00;;;;;;;22.17;17.80;;;;;;;7.20;59.33;98634.75;8314742;28;20235;-72
2021/12/12 00:18:05;;;;;;;23.17;17.57;;;;;;;7.26;59.59;98633.78;8314714;28;20229;-72
2021/12/12 00:22:14;;;;;;;22.70;18.20;;;;;;;7.18;59.64;98638.25;8314229;28;20543;-72
2021/12/12 00:26:18;;;;;;;24.33;17.87;;;;;;;7.18;59.56;98636.53;8314426;28;20229;-72
2021/12/12 00:30:21;;;;;;;21.10;16.77;;;;;;;7.25;59.50;98629.50;8318635;28;20240;-72
2021/12/12 00:34:27;;;;;;;18.17;16.27;;;;;;;7.23;59.13;98632.13;8320805;28;20505;-72
2021/12/12 00:38:32;;;;;;;20.03;17.63;;;;;;;7.17;59.54;98646.84;8319868;28;20247;-71
2021/12/12 00:42:36;;;;;;;19.93;17.13;;;;;;;7.27;59.48;98655.25;8320724;28;20233;-72
2021/12/12 00:46:40;;;;;;;19.90;17.80;;;;;;;7.27;59.27;98661.22;8320931;28;20228;-72
2021/12/12 00:50:44;;;;;;;21.83;17.87;;;;;;;7.18;59.73;98674.31;8320140;28;20240;-72
2021/12/12 00:54:48;;;;;;;19.60;17.53;;;;;;;7.27;59.46;98674.13;8319972;28;20232;-72
2021/12/12 00:58:52;;;;;;;19.80;17.67;;;;;;;7.30;59.18;98676.66;8319675;28;20549;-72
2021/12/12 01:02:56;;;;;;;21.20;18.00;;;;;;;7.34;58.83;98682.59;8319762;28;20562;-71
2021/12/12 01:07:04;;;;;;;19.87;16.83;;;;;;;7.26;58.87;98690.47;8319769;28;20410;-72
2021/12/12 01:11:10;;;;;;;19.67;17.43;;;;;;;7.18;59.24;98687.22;8319524;28;20271;-72
2021/12/12 01:15:18;;;;;;;19.00;16.03;;;;;;;7.28;59.18;98687.88;8319439;28;20236;-71
2021/12/12 01:19:25;;;;;;;20.97;16.70;;;;;;;7.32;59.29;98689.50;8319278;28;20402;-71
2021/12/12 01:23:34;;;;;;;19.20;16.30;;;;;;;7.33;59.21;98686.03;8286158;28;20229;-71
2021/12/12 01:27:37;;;;;;;17.60;15.70;;;;;;;7.31;59.25;98682.63;8286453;28;20244;-72
2021/12/12 01:31:47;;;;;;;21.03;16.40;;;;;;;7.22;59.38;98681.94;8286302;28;20233;-72
2021/12/12 01:35:51;;;;;;;19.17;16.37;;;;;;;7.33;59.37;98684.31;8286336;28;20240;-72
2021/12/12 01:39:58;;;;;;;18.60;16.43;;;;;;;7.33;59.08;98691.19;8284767;28;20238;-72
2021/12/12 01:44:05;;;;;;;18.17;15.60;;;;;;;7.34;59.33;98704.03;8287182;28;20250;-72
2021/12/12 01:48:11;;;;;;;20.13;15.07;;;;;;;7.38;58.81;98702.25;8288331;28;20209;-72
2021/12/12 01:52:18;;;;;;;19.60;15.83;;;;;;;7.34;58.97;98703.19;8286296;28;20240;-72
2021/12/12 01:56:25;;;;;;;20.63;16.17;;;;;;;7.23;59.51;98704.28;8285606;28;20237;-72
2021/12/12 02:00:33;;;;;;;16.73;14.83;;;;;;;7.34;58.99;98724.66;8285412;28;20238;-72
2021/12/12 02:04:40;;;;;;;18.60;15.40;;;;;;;7.34;58.95;98728.97;8285567;28;20234;-72
2021/12/12 02:08:44;;;;;;;17.50;14.67;;;;;;;7.38;59.29;98725.44;8285421;28;20234;-72
2021/12/12 02:12:48;;;;;;;17.50;14.97;;;;;;;7.40;59.07;98745.16;8285089;28;20267;-72
2021/12/12 02:16:54;;;;;;;18.40;14.43;;;;;;;7.45;58.91;98737.34;8284921;28;20233;-72
2021/12/12 02:21:08;;;;;;;20.33;14.00;;;;;;;7.47;59.13;98729.59;8285223;28;20241;-72
2021/12/12 02:38:19;;;;;;;18.00;13.13;;;;;;;7.37;59.31;98719.47;8284391;28;20245;-72
2021/12/12 02:42:24;;;;;;;17.33;13.60;;;;;;;7.49;58.98;98715.78;8284055;28;20430;-71
2021/12/12 02:46:32;;;;;;;17.30;13.70;;;;;;;7.42;58.80;98709.06;8284012;28;20309;-72
2021/12/12 02:50:40;;;;;;;16.87;13.50;;;;;;;7.49;58.71;98713.22;8316037;28;20229;-72
2021/12/12 02:54:43;;;;;;;17.87;13.30;;;;;;;7.51;58.90;98711.44;8316514;28;20554;-72
2021/12/12 02:58:50;;;;;;;18.97;13.40;;;;;;;7.51;58.75;98714.03;8316411;28;20236;-72
2021/12/12 03:02:58;;;;;;;17.20;12.90;;;;;;;7.48;58.97;98719.22;8316122;28;20597;-72
2021/12/12 03:07:02;;;;;;;16.70;12.80;;;;;;;7.51;58.97;98715.75;8316057;28;20228;-72
2021/12/12 03:11:05;;;;;;;14.40;12.40;;;;;;;7.44;59.10;98720.16;8316418;28;20229;-72
2021/12/12 03:15:16;;;;;;;19.20;13.67;;;;;;;7.46;58.64;98723.56;8315923;28;20233;-72
2021/12/12 03:19:20;;;;;;;18.37;13.13;;;;;;;7.47;58.69;98724.44;8315798;28;20232;-72
2021/12/12 03:23:25;;;;;;;17.43;12.97;;;;;;;7.53;58.70;98726.88;8315878;28;20236;-72
2021/12/12 03:27:28;;;;;;;15.47;12.80;;;;;;;7.39;59.40;98729.75;8290631;28;20225;-72
2021/12/12 03:31:36;;;;;;;17.03;13.17;;;;;;;7.41;58.86;98731.41;8282745;28;20248;-72
2021/12/12 03:35:40;;;;;;;15.20;11.57;;;;;;;7.33;59.34;98730.72;8282940;28;20307;-72
2021/12/12 03:39:45;;;;;;;17.53;12.73;;;;;;;7.43;58.58;98728.81;8282404;28;20241;-72
2021/12/12 03:43:53;;;;;;;16.63;12.13;;;;;;;7.40;59.09;98734.84;8282845;28;20246;-71
2021/12/12 03:48:00;;;;;;;17.23;12.20;;;;;;;7.37;58.71;98739.22;8282727;28;20236;-72
2021/12/12 03:52:05;;;;;;;15.23;11.97;;;;;;;7.37;58.95;98741.81;8282945;28;20237;-72
2021/12/12 03:56:10;;;;;;;15.03;11.37;;;;;;;7.40;58.54;98759.78;8283047;28;20237;-72
2021/12/12 04:00:16;;;;;;;19.30;11.97;;;;;;;7.17;59.13;98755.03;8282554;28;20240;-72
2021/12/12 04:04:23;;;;;;;15.77;10.93;;;;;;;7.29;59.02;98761.69;8281759;28;20229;-72
2021/12/12 04:08:27;;;;;;;14.67;9.73;;;;;;;7.16;58.83;98761.06;8282285;28;20233;-72
2021/12/12 04:12:30;;;;;;;12.33;8.07;;;;;;;7.16;57.72;98764.50;8298130;28;20239;-72
2021/12/12 04:16:36;;;;;;;13.30;8.13;;;;;;;7.35;57.74;98772.75;8314535;28;20431;-73
2021/12/12 04:20:40;;;;;;;14.17;8.77;;;;;;;7.20;57.45;98778.19;8314531;28;20236;-72
2021/12/12 04:24:46;;;;;;;11.07;6.90;;;;;;;7.10;57.13;98774.94;8314779;28;20574;-71
2021/12/12 04:28:57;;;;;;;13.03;7.00;;;;;;;7.14;57.03;98775.69;8314366;28;20228;-72
2021/12/12 04:33:00;;;;;;;11.77;7.03;;;;;;;7.04;57.35;98788.75;8314397;28;20255;-72
2021/12/12 04:37:06;;;;;;;10.20;6.00;;;;;;;7.02;57.09;98795.63;8314476;28;20255;-72
2021/12/12 04:41:09;;;;;;;14.27;6.67;;;;;;;6.87;56.41;98798.47;8314199;28;20245;-72
2021/12/12 04:45:21;;;;;;;12.10;6.03;;;;;;;6.74;56.77;98809.81;8314464;28;20245;-72
2021/12/12 04:53:50;;;;;;;9.20;5.40;;;;;;;6.42;56.97;98800.88;8313923;28;20523;-72
2021/12/12 04:58:00;;;;;;;9.97;5.90;;;;;;;6.60;56.27;98812.63;8313798;28;20435;-72
2021/12/12 05:02:08;;;;;;;12.13;5.43;;;;;;;6.43;56.42;98812.84;8314034;28;20233;-72
2021/12/12 05:06:15;;;;;;;8.73;4.83;;;;;;;6.60;56.28;98804.91;8314164;28;20236;-72
2021/12/12 05:10:23;;;;;;;11.37;5.07;;;;;;;6.69;56.05;98814.22;8314070;28;20233;-72
2021/12/12 05:14:29;;;;;;;12.40;5.10;;;;;;;6.63;56.07;98812.59;8313765;28;20237;-72
2021/12/12 05:18:36;;;;;;;8.10;4.60;;;;;;;6.72;55.23;98816.72;8319124;28;20335;-72
2021/12/12 05:22:43;;;;;;;9.13;4.40;;;;;;;6.76;55.29;98826.97;8319469;28;20247;-72
2021/12/12 05:26:50;;;;;;;11.93;4.37;;;;;;;6.62;55.21;98828.88;8319389;28;20236;-72
2021/12/12 05:30:53;;;;;;;10.40;4.43;;;;;;;6.71;55.02;98839.06;8319309;28;20255;-72
2021/12/12 05:34:57;;;;;;;9.73;4.30;;;;;;;6.74;55.09;98848.44;8319259;28;20229;-72
2021/12/12 05:39:04;;;;;;;9.70;4.60;;;;;;;6.73;54.86;98833.88;8319255;28;20429;-72
2021/12/12 05:43:09;;;;;;;8.73;4.33;;;;;;;6.70;55.04;98849.38;8318332;28;20237;-72
2021/12/12 05:47:12;;;;;;;12.03;4.50;;;;;;;6.53;55.36;98850.47;8318412;28;20236;-72
2021/12/12 05:51:16;;;;;;;10.67;4.77;;;;;;;6.62;54.66;98846.91;8318546;28;20237;-72
2021/12/12 05:55:19;;;;;;;9.83;4.23;;;;;;;6.62;55.15;98850.31;8318424;28;20233;-72
2021/12/12 05:59:24;;;;;;;9.97;4.43;;;;;;;6.57;54.95;98854.69;8317997;28;20233;-72
2021/12/12 06:03:37;;;;;;;9.37;4.50;;;;;;;6.65;54.84;98867.47;8317919;28;20236;-72
2021/12/12 06:07:40;;;;;;;9.00;4.00;;;;;;;6.49;55.28;98874.53;8317495;28;20237;-72
2021/12/12 06:11:45;;;;;;;10.83;4.80;;;;;;;6.49;54.93;98871.94;8317760;28;20547;-72
2021/12/12 06:15:53;;;;;;;10.30;4.37;;;;;;;6.44;54.79;98879.75;8317879;28;20524;-72
2021/12/12 06:19:57;;;;;;;10.67;4.57;;;;;;;6.39;55.10;98885.81;8317704;28;20235;-72
2021/12/12 06:24:01;;;;;;;10.23;4.10;;;;;;;6.36;55.03;98894.44;8317673;28;20239;-72
2021/12/12 06:28:08;;;;;;;8.93;4.17;;;;;;;6.22;55.17;98892.00;8317248;28;20527;-72
2021/12/12 06:32:14;;;;;;;10.77;4.30;;;;;;;6.34;54.79;98891.03;8317342;28;20232;-72
2021/12/12 06:36:18;;;;;;;10.07;4.30;;;;;;;6.42;54.56;98890.94;8317107;28;20237;-72
2021/12/12 06:40:22;;;;;;;10.87;4.37;;;;;;;6.41;54.13;98890.06;8327158;28;20262;-72
2021/12/12 06:44:25;;;;;;;7.17;3.80;;;;;;;6.44;53.74;98894.34;8330207;28;20228;-72
2021/12/12 06:48:30;;;;;;;7.33;3.63;;;;;;;6.49;53.79;98891.69;8329343;28;20225;-72
2021/12/12 06:52:33;;;;;;;9.50;3.93;;;;;;;6.41;53.45;98895.22;8331894;28;20244;-73
2021/12/12 06:56:37;;;;;;;9.67;4.10;;;;;;;6.50;53.55;98903.69;8332112;28;20236;-72
2021/12/12 07:00:41;;;;;;;7.60;3.97;;;;;;;6.43;54.00;98897.78;8331760;28;20450;-72
2021/12/12 07:04:46;;;;;;;8.67;4.30;;;;;;;6.43;53.83;98906.34;8331859;28;20236;-72
2021/12/12 07:08:50;;;;;;;9.30;4.20;;;;;;;6.46;53.37;98903.72;8327323;28;20229;-72
2021/12/12 07:12:55;;;;;;;9.53;4.20;;;;;;;6.39;53.24;98907.25;8331369;28;20228;-72
2021/12/12 07:16:59;;;;;;;9.90;4.30;;;;;;;6.43;53.57;98911.47;8331223;28;20239;-72
2021/12/12 07:21:06;;;;;;;8.13;4.40;;;;;;;6.44;53.33;98926.06;8328685;28;20235;-72
2021/12/12 07:25:10;;;;;;;10.30;4.40;;;;;;;6.51;53.01;98920.81;8318479;28;20245;-72
2021/12/12 07:29:13;;;;;;;12.70;4.50;;;;;;;6.54;53.06;98926.78;8315387;28;20532;-71
2021/12/12 07:33:16;;;;;;;8.37;3.90;;;;;;;6.51;53.04;98929.44;8315245;28;20237;-72
2021/12/12 07:37:21;;;;;;;8.67;5.10;;;;;;;6.44;53.41;98912.34;8314720;28;20236;-72
2021/12/12 07:41:28;;;;;;;8.77;4.27;;;;;;;6.46;53.11;98908.03;8314709;28;20256;-72
2021/12/12 07:45:31;;;;;;;13.10;6.10;;;;;;;6.33;53.01;98920.19;8315023;28;20229;-72
2021/12/12 07:49:38;;;;;;;8.27;4.97;;;;;;;6.68;52.88;98926.59;8315085;28;20247;-72
2021/12/12 07:53:43;;;;;;;8.43;4.23;;;;;;;9.10;46.40;98917.97;8314279;28;20247;-72
2021/12/12 07:57:46;;;;;;;9.73;3.40;;;;;;;10.63;42.58;98919.19;8313932;28;20232;-72
2021/12/12 08:01:52;;;;;;;7.20;3.60;;;;;;;11.45;40.47;98914.94;8315260;28;20240;-72
2021/12/12 08:05:56;;;;;;;7.60;3.57;;;;;;;11.67;40.45;98899.47;8314450;28;20240;-72
2021/12/12 08:10:02;;;;;;;7.90;3.50;;;;;;;10.23;42.72;98909.94;8312378;28;20419;-72
2021/12/12 08:14:07;;;;;;;7.57;3.17;;;;;;;9.09;45.26;98920.59;8314991;28;20423;-72
2021/12/12 08:18:13;;;;;;;9.40;4.30;;;;;;;8.52;46.69;98920.09;8315138;28;20535;-73
2021/12/12 08:22:16;;;;;;;7.13;3.43;;;;;;;8.23;47.43;98924.06;8314865;28;20241;-72
2021/12/12 08:26:21;;;;;;;8.77;3.90;;;;;;;8.04;48.37;98920.16;8315017;28;20240;-72
2021/12/12 08:30:25;;;;;;;7.93;4.10;;;;;;;7.99;48.64;98920.22;8315000;28;20247;-71
2021/12/12 08:34:28;;;;;;;8.63;3.87;;;;;;;7.89;48.47;98923.03;8313815;28;20231;-72
2021/12/12 08:38:31;;;;;;;8.20;3.53;;;;;;;7.79;48.75;98932.66;8317620;28;20343;-72
2021/12/12 08:42:36;;;;;;;7.70;4.30;;;;;;;7.76;49.70;98927.53;8329633;28;20228;-72
2021/12/12 08:46:40;;;;;;;9.43;4.37;;;;;;;7.64;49.61;98924.28;8324699;28;20535;-72
2021/12/12 08:50:45;;;;;;;7.70;4.20;;;;;;;7.68;50.01;98922.53;8327361;28;20233;-72
2021/12/12 08:54:50;;;;;;;8.03;4.27;;;;;;;7.74;50.00;98935.28;8329538;28;20248;-72
2021/12/12 08:58:54;;;;;;;8.97;4.00;;;;;;;7.76;49.67;98924.97;8333205;28;20237;-71
2021/12/12 09:02:57;;;;;;;10.70;4.43;;;;;;;7.74;49.83;98935.28;8322637;28;20450;-71
2021/12/12 09:07:10;;;;;;;5.20;3.13;;;;;;;8.17;49.07;98939.69;8319828;28;20228;-71
2021/12/12 09:11:18;;;;;;;9.63;3.70;;;;;;;8.15;48.69;98938.88;8319806;28;20427;-71
2021/12/12 09:15:26;;;;;;;8.13;4.07;;;;;;;8.20;49.25;98937.03;8319740;28;20236;-72
2021/12/12 09:19:33;;;;;;;8.90;4.30;;;;;;;8.28;48.77;98942.06;8286866;28;20233;-72
2021/12/12 09:23:40;;;;;;;8.87;4.10;;;;;;;8.03;48.94;98939.94;8287029;28;20241;-72
2021/12/12 09:27:46;;;;;;;8.73;4.20;;;;;;;7.85;49.41;98934.28;8286867;28;20434;-71
2021/12/12 09:31:54;;;;;;;9.67;4.43;;;;;;;8.03;49.43;98931.34;8328359;28;20411;-71
2021/12/12 09:36:00;;;;;;;8.07;4.03;;;;;;;7.79;48.97;98930.06;8338915;28;20290;-71
2021/12/12 09:40:10;;;;;;;8.77;4.30;;;;;;;8.16;49.26;98940.53;8323244;28;20299;-72
2021/12/12 09:44:31;;;;;;;8.10;4.20;;;;;;;8.12;50.11;98933.75;8317862;28;20233;-71
2021/12/12 09:53:25;;;;;;;11.37;4.73;;;;;;;7.89;50.06;98910.97;8317498;28;20232;-71
2021/12/12 09:57:33;;;;;;;11.00;5.50;;;;;;;8.20;49.70;98907.78;8315749;28;20554;-71
2021/12/12 10:01:39;;;;;;;6.50;4.17;;;;;;;7.96;49.94;98904.81;8315933;28;20404;-72
2021/12/12 10:05:52;;;;;;;10.13;4.33;;;;;;;8.15;49.77;98905.31;8317868;28;20238;-71
2021/12/12 10:09:58;;;;;;;9.47;4.47;;;;;;;8.07;49.42;98907.19;8317335;28;20550;-71
2021/12/12 10:14:04;;;;;;;9.47;4.20;;;;;;;8.29;49.33;98907.63;8314486;28;20233;-72
2021/12/12 10:18:12;;;;;;;11.33;4.00;;;;;;;8.41;48.83;98912.59;8316910;28;20232;-71
2021/12/12 10:22:29;;;;;;;7.13;3.77;;;;;;;8.59;49.07;98903.59;8314670;28;20244;-71
2021/12/12 10:26:36;;;;;;;7.67;3.70;;;;;;;8.41;49.23;98901.34;8314096;28;20520;-71
2021/12/12 10:30:47;;;;;;;9.60;4.97;;;;;;;8.32;49.33;98893.78;8316498;28;20434;-71
2021/12/12 10:34:52;;;;;;;7.17;3.93;;;;;;;8.49;48.91;98896.06;8314781;28;20237;-72
2021/12/12 10:38:59;;;;;;;10.43;4.20;;;;;;;8.32;49.06;98892.09;8316369;28;20236;-71
2021/12/12 10:43:06;;;;;;;11.27;4.83;;;;;;;8.41;49.52;98884.19;8316305;28;20233;-71
2021/12/12 10:47:13;;;;;;;8.10;3.90;;;;;;;8.67;48.20;98875.03;8314138;28;20229;-72
2021/12/12 10:51:19;;;;;;;8.83;3.50;;;;;;;8.73;49.07;98863.72;8316080;28;20393;-72
2021/12/12 10:55:29;;;;;;;8.47;3.83;;;;;;;8.66;48.78;98864.72;8315074;28;20539;-71
2021/12/12 10:59:35;;;;;;;10.53;3.67;;;;;;;8.49;48.80;98867.66;8313805;28;20225;-71
2021/12/12 11:03:40;;;;;;;10.40;3.93;;;;;;;8.46;49.56;98863.44;8315385;28;20235;-72
2021/12/12 11:07:47;;;;;;;6.57;3.53;;;;;;;8.46;49.44;98857.44;8315762;28;20229;-71
2021/12/12 11:11:57;;;;;;;8.77;3.50;;;;;;;8.50;49.25;98857.31;8316104;28;20420;-71
2021/12/12 11:16:05;;;;;;;6.90;3.20;;;;;;;8.89;48.71;98859.91;8316026;28;20256;-72
2021/12/12 11:20:17;;;;;;;8.30;3.67;;;;;;;8.85;48.47;98865.16;8316136;28;20244;-72
2021/12/12 11:24:24;;;;;;;8.30;3.63;;;;;;;8.73;49.07;98868.88;8315670;28;20432;-71
2021/12/12 11:28:31;;;;;;;8.67;3.33;;;;;;;8.84;48.27;98858.31;8315016;28;20233;-71
2021/12/12 11:32:35;;;;;;;7.90;3.60;;;;;;;8.87;48.34;98866.84;8314559;28;20241;-72
2021/12/12 11:36:49;;;;;;;9.30;3.90;;;;;;;8.88;48.75;98867.69;8315786;28;20435;-73
2021/12/12 11:40:59;;;;;;;7.03;3.47;;;;;;;8.49;49.47;98868.53;8341223;28;20232;-70
2021/12/12 11:45:07;;;;;;;6.00;3.77;;;;;;;8.65;49.79;98850.97;8342094;28;20556;-70
2021/12/12 11:49:20;;;;;;;6.93;3.43;;;;;;;8.56;49.58;98857.16;8330314;28;20236;-70
2021/12/12 11:53:31;;;;;;;8.37;3.70;;;;;;;8.73;49.59;98856.81;8328353;28;20228;-71
2021/12/12 11:57:40;;;;;;;7.23;3.83;;;;;;;8.91;49.58;98859.84;8317966;28;20229;-71
2021/12/12 12:02:02;;;;;;;6.87;3.70;;;;;;;8.76;48.64;98853.31;8296182;28;20528;-70
2021/12/12 12:06:18;;;;;;;9.03;3.87;;;;;;;8.62;49.43;98858.78;8297481;28;20244;-70
2021/12/12 12:10:36;;;;;;;7.97;4.23;;;;;;;8.89;48.88;98844.41;8296278;28;20225;-71
2021/12/12 12:14:49;;;;;;;9.07;4.30;;;;;;;8.98;49.35;98835.56;8299822;28;20250;-70
2021/12/12 12:19:01;;;;;;;9.33;4.10;;;;;;;9.14;48.86;98838.66;8294707;28;20244;-72
2021/12/12 12:23:17;;;;;;;6.13;3.97;;;;;;;9.22;49.14;98849.63;8297504;28;20236;-70
2021/12/12 12:27:38;;;;;;;7.60;4.10;;;;;;;9.15;49.77;98836.00;8301606;28;20233;-70
2021/12/12 12:32:31;;;;;;;6.80;3.60;;;;;;;9.15;48.71;98822.22;8301344;28;20218;-71
2021/12/12 12:37:22;;;;;;;6.83;3.90;;;;;;;8.98;48.60;98818.31;8296658;28;20228;-71
2021/12/12 12:42:04;;;;;;;6.53;3.93;;;;;;;9.26;48.90;98809.06;8225642;28;20228;-70
2021/12/12 12:46:47;;;;;;;7.80;4.40;;;;;;;9.10;47.93;98812.03;8277393;28;20430;-70
2021/12/12 12:51:04;;;;;;;5.47;3.43;;;;;;;9.16;48.08;98805.84;8264629;28;20221;-67
2021/12/12 12:55:42;;;;;;;6.07;4.00;;;;;;;9.28;48.57;98809.84;8284855;28;20229;-68
2021/12/12 13:00:03;;;;;;;6.03;3.43;;;;;;;8.98;48.56;98809.72;8252860;28;20253;-68
2021/12/12 13:04:16;;;;;;;6.17;3.93;;;;;;;8.80;49.04;98811.03;8265055;28;20241;-67
2021/12/12 13:09:11;;;;;;;6.10;3.90;;;;;;;8.92;48.33;98810.72;8255340;28;20428;-68
2021/12/12 13:13:15;;;;;;;14.40;9.90;;;;;;;10.30;72.30;98807.88;8262464;28;20244;-74
2021/12/12 13:17:26;;;;;;;8.67;5.70;;;;;;;10.64;51.83;98800.00;8254833;28;20245;-67
2021/12/12 13:21:36;;;;;;;7.07;4.07;;;;;;;9.69;47.55;98790.66;8253217;28;20222;-68
2021/12/12 13:25:47;;;;;;;7.03;4.60;;;;;;;9.49;48.15;98796.38;8257810;28;20234;-68
2021/12/12 13:30:05;;;;;;;6.03;3.70;;;;;;;9.41;48.43;98800.91;8252540;28;20245;-67
2021/12/12 13:34:14;;;;;;;5.00;3.90;;;;;;;9.33;48.38;98808.84;8250745;28;20607;-68
2021/12/12 13:38:19;;;;;;;11.83;8.10;;;;;;;9.11;48.76;98803.38;8261860;28;20241;-67
2021/12/12 13:42:30;;;;;;;5.60;3.80;;;;;;;8.85;48.55;98808.31;8317912;28;20225;-67
2021/12/12 13:46:38;;;;;;;7.47;4.57;;;;;;;9.05;48.86;98813.03;8316041;28;20416;-68
2021/12/12 13:50:50;;;;;;;5.60;3.80;;;;;;;9.08;48.59;98811.22;8318063;28;20589;-67
2021/12/12 13:55:00;;;;;;;5.93;4.57;;;;;;;8.92;49.22;98809.88;8307963;28;20233;-68
2021/12/12 13:59:10;;;;;;;7.47;5.63;;;;;;;8.67;49.88;98807.88;8317600;28;20412;-68
2021/12/12 14:03:23;;;;;;;6.57;4.80;;;;;;;8.44;50.26;98823.06;8315817;28;20419;-68
2021/12/12 14:07:31;;;;;;;5.07;4.17;;;;;;;8.75;50.41;98811.13;8314573;28;20415;-67
2021/12/12 14:11:38;;;;;;;6.10;4.80;;;;;;;8.83;50.11;98812.69;8316334;28;20221;-69
2021/12/12 14:15:49;;;;;;;5.00;4.47;;;;;;;8.71;50.51;98822.41;8316609;28;20236;-69
2021/12/12 14:19:57;;;;;;;5.37;4.00;;;;;;;8.44;51.21;98823.06;8314708;28;20232;-70
2021/12/12 14:24:00;;;;;;;7.57;4.83;;;;;;;8.55;50.72;98832.25;8316614;28;20233;-70
2021/12/12 14:28:05;;;;;;;7.30;5.57;;;;;;;8.45;50.98;98835.91;8315600;28;20416;-69
2021/12/12 14:32:15;;;;;;;8.37;4.67;;;;;;;8.44;50.52;98835.97;8311304;28;20251;-71
2021/12/12 14:36:21;;;;;;;9.87;6.87;;;;;;;8.61;50.96;98823.53;8315624;28;20229;-69
2021/12/12 14:40:27;;;;;;;7.57;4.63;;;;;;;8.61;51.40;98837.28;8315367;28;20241;-70
2021/12/12 14:44:32;;;;;;;6.27;5.07;;;;;;;8.63;51.32;98845.00;8292219;28;20529;-69
2021/12/12 14:48:44;;;;;;;8.23;5.13;;;;;;;8.49;51.85;98841.84;8297907;28;20229;-70
2021/12/12 14:53:08;;;;;;;4.97;4.47;;;;;;;8.66;51.46;98834.56;8316717;28;20415;-71
2021/12/12 14:57:15;;;;;;;7.30;5.47;;;;;;;8.17;51.66;98836.47;8317050;28;20543;-72
2021/12/12 15:01:20;;;;;;;7.47;5.30;;;;;;;8.44;51.59;98843.69;8314095;28;20236;-69
2021/12/12 15:05:28;;;;;;;6.87;4.40;;;;;;;8.20;52.30;98841.56;8283733;28;20308;-70
2021/12/12 15:09:37;;;;;;;8.23;5.90;;;;;;;8.45;51.78;98838.47;8283512;28;20558;-70
2021/12/12 15:13:42;;;;;;;7.03;4.97;;;;;;;8.27;52.38;98847.44;8283712;28;20241;-68
2021/12/12 15:17:52;;;;;;;7.40;5.57;;;;;;;8.39;51.38;98844.59;8299662;28;20232;-72
2021/12/12 15:22:03;;;;;;;6.17;5.43;;;;;;;8.42;51.81;98848.91;8290157;28;20244;-71
2021/12/12 15:26:10;;;;;;;6.57;4.60;;;;;;;8.46;52.16;98839.34;8277329;28;20245;-70
2021/12/12 15:30:17;;;;;;;6.73;4.67;;;;;;;8.55;51.98;98852.06;8283199;28;20241;-71
2021/12/12 15:34:22;;;;;;;11.27;7.30;;;;;;;8.38;51.99;98842.91;8283027;28;20243;-72
2021/12/12 15:38:30;;;;;;;9.70;6.50;;;;;;;8.33;52.41;98833.56;8288700;28;20432;-71
2021/12/12 15:42:38;;;;;;;7.17;6.00;;;;;;;8.15;53.18;98837.41;8298623;28;20236;-69
2021/12/12 15:46:43;;;;;;;7.27;6.07;;;;;;;8.35;52.84;98831.81;8298721;28;20241;-71
2021/12/12 15:50:50;;;;;;;8.53;6.40;;;;;;;8.26;52.63;98819.94;8305701;28;20271;-72
2021/12/12 15:54:57;;;;;;;9.03;6.30;;;;;;;7.76;54.13;98826.97;8312129;28;20235;-72
2021/12/12 15:59:04;;;;;;;8.33;6.50;;;;;;;8.22;53.80;98836.38;8313109;28;20243;-71
2021/12/12 16:03:10;;;;;;;9.10;6.60;;;;;;;7.97;54.52;98829.13;8306730;28;20236;-70
2021/12/12 16:07:16;;;;;;;6.77;5.83;;;;;;;7.93;53.87;98831.81;8305423;28;20237;-71
2021/12/12 16:11:22;;;;;;;9.10;7.30;;;;;;;7.78;54.20;98835.53;8313803;28;20236;-71
2021/12/12 16:15:25;;;;;;;7.17;6.17;;;;;;;7.92;54.23;98840.41;8314439;28;20236;-71
2021/12/12 16:19:31;;;;;;;8.20;7.20;;;;;;;8.13;54.04;98839.13;8297907;28;20304;-71
2021/12/12 16:23:34;;;;;;;10.80;7.30;;;;;;;8.01;53.33;98840.22;8314384;28;20236;-71
2021/12/12 16:27:42;;;;;;;7.63;6.80;;;;;;;8.16;53.65;98845.06;8314555;28;20237;-72
2021/12/12 16:31:47;;;;;;;9.20;7.83;;;;;;;8.12;54.13;98845.19;8314707;28;20229;-71
2021/12/12 16:35:50;;;;;;;8.43;7.57;;;;;;;8.15;54.18;98847.72;8314325;28;20523;-71
2021/12/12 16:39:56;;;;;;;10.87;7.73;;;;;;;8.21;54.50;98850.16;8313456;28;20249;-70
2021/12/12 16:44:01;;;;;;;8.47;7.30;;;;;;;7.91;55.59;98846.47;8314274;28;20243;-71
2021/12/12 16:48:07;;;;;;;9.50;7.67;;;;;;;7.97;55.50;98851.50;8313747;28;20232;-70
2021/12/12 16:52:13;;;;;;;7.93;7.03;;;;;;;8.08;55.37;98856.47;8314129;28;20240;-71
2021/12/12 16:56:21;;;;;;;10.37;8.07;;;;;;;7.79;56.66;98843.25;8314039;28;20513;-70
2021/12/12 17:00:29;;;;;;;9.40;7.73;;;;;;;8.14;55.90;98852.00;8313402;28;20237;-70
2021/12/12 17:04:32;;;;;;;8.77;7.47;;;;;;;7.92;56.96;98855.88;8305863;28;20547;-69
2021/12/12 17:08:58;;;;;;;9.57;8.53;;;;;;;8.04;56.97;98858.25;8314159;28;20236;-70
2021/12/12 17:13:02;;;;;;;9.13;7.23;;;;;;;8.05;56.78;98869.41;8318709;28;20229;-70
2021/12/12 17:17:08;;;;;;;10.80;8.70;;;;;;;8.08;56.94;98874.50;8319904;28;20239;-69
2021/12/12 17:21:17;;;;;;;10.43;8.57;;;;;;;8.12;57.00;98864.09;8320102;28;20232;-70
2021/12/12 17:25:20;;;;;;;10.13;9.10;;;;;;;7.94;58.26;98856.69;8319468;28;20558;-71
2021/12/12 17:29:28;;;;;;;11.03;9.73;;;;;;;7.95;58.48;98861.00;8319562;28;20247;-71
2021/12/12 17:33:40;;;;;;;12.03;10.83;;;;;;;7.78;58.60;98851.00;8319035;28;20251;-71
2021/12/12 17:37:45;;;;;;;12.10;10.40;;;;;;;7.96;58.67;98849.81;8319166;28;20300;-69
2021/12/12 17:42:36;;;;;;;12.63;11.23;;;;;;;7.95;58.82;98856.69;8318777;28;20282;-71
2021/12/12 17:47:18;;;;;;;10.33;9.33;;;;;;;7.71;59.01;98850.28;8318364;28;20524;-69
2021/12/12 17:52:06;;;;;;;9.63;8.57;;;;;;;7.60;59.96;98855.63;8319129;28;20241;-68
2021/12/12 17:56:15;;;;;;;9.60;8.60;;;;;;;7.44;60.51;98856.75;8276521;28;20228;-69
2021/12/12 18:00:22;;;;;;;9.87;8.87;;;;;;;7.77;59.19;98857.06;8318499;28;20236;-70
2021/12/12 18:04:29;;;;;;;13.37;8.87;;;;;;;7.59;60.25;98860.81;8318344;28;20259;-70
2021/12/12 18:09:03;;;;;;;270.70;129.17;;;;;;;7.97;64.79;98865.25;8317536;28;20255;-72
2021/12/12 18:13:12;;;;;;;637.63;327.87;;;;;;;8.36;69.42;98862.75;8317980;28;20229;-71
2021/12/12 18:17:20;;;;;;;49.77;27.70;;;;;;;8.13;59.17;98859.78;8317958;28;20559;-70
2021/12/12 18:21:28;;;;;;;36.10;20.43;;;;;;;8.20;61.42;98851.88;8317748;28;20237;-70
2021/12/12 18:25:38;;;;;;;11.20;10.00;;;;;;;8.03;59.29;98859.97;8284174;28;20240;-69
2021/12/12 18:29:50;;;;;;;22.53;15.83;;;;;;;8.20;60.19;98857.03;8284691;28;20229;-70
2021/12/12 18:33:56;;;;;;;100.10;47.03;;;;;;;8.94;65.94;98854.59;8284757;28;20229;-69
2021/12/12 18:38:01;;;;;;;13.33;11.43;;;;;;;8.37;58.33;98856.69;8284677;28;20545;-69
2021/12/12 18:42:09;;;;;;;11.57;9.93;;;;;;;8.19;58.83;98862.25;8284677;28;20416;-69
2021/12/12 18:46:17;;;;;;;12.10;10.80;;;;;;;8.03;59.41;98864.25;8284419;28;20249;-70
2021/12/12 18:50:27;;;;;;;11.83;10.23;;;;;;;7.62;60.29;98856.44;8284298;28;20233;-71
2021/12/12 18:54:34;;;;;;;12.17;9.70;;;;;;;7.74;60.21;98859.69;8308865;28;20225;-71
2021/12/12 18:58:42;;;;;;;11.63;10.20;;;;;;;7.80;60.38;98865.56;8316837;28;20240;-70
2021/12/12 19:02:52;;;;;;;12.07;10.47;;;;;;;7.60;61.02;98863.34;8315530;28;20235;-71
2021/12/12 19:06:57;;;;;;;10.20;9.23;;;;;;;7.80;60.23;98860.41;8316350;28;20425;-71
2021/12/12 19:11:02;;;;;;;10.83;9.80;;;;;;;7.76;60.55;98863.91;8316515;28;20228;-71
2021/12/12 19:15:09;;;;;;;10.50;9.40;;;;;;;7.82;60.53;98862.94;8316352;28;20229;-71
2021/12/12 19:19:23;;;;;;;10.60;9.37;;;;;;;7.55;60.36;98859.16;8316402;28;20523;-69
2021/12/12 19:23:32;;;;;;;11.50;10.40;;;;;;;7.66;61.19;98866.72;8316588;28;20336;-70
2021/12/12 19:27:37;;;;;;;10.93;9.93;;;;;;;7.73;61.10;98865.69;8315369;28;20240;-71
2021/12/12 19:31:44;;;;;;;14.13;12.33;;;;;;;7.79;60.43;98863.88;8316066;28;20416;-70
2021/12/12 19:35:50;;;;;;;13.13;11.77;;;;;;;7.81;60.45;98875.00;8315293;28;20237;-71
2021/12/12 19:39:56;;;;;;;12.37;11.10;;;;;;;7.61;61.12;98864.19;8315403;28;20237;-70
2021/12/12 19:44:01;;;;;;;32.23;18.77;;;;;;;8.19;70.94;98870.84;8315253;28;20418;-69
2021/12/12 19:48:06;;;;;;;24.43;14.63;;;;;;;10.23;62.75;98865.94;8315180;28;20242;-68
2021/12/12 19:52:18;;;;;;;18.43;11.80;;;;;;;11.20;55.79;98861.28;8315106;28;20239;-69